You are not logged in, Click here to log in
通康丁國際機場 TGU / MHTG 宏都拉斯德古斯加巴的機場
ICAO: MHTG Country: 宏都拉斯德古斯加巴的機場
Latitude: 14.0609 Longitude: -87.2172
Total Arrivals: 3 Total Departures: 3
Latest Arrival: FS9013 (MZBZ-MHTG)Arthur. Kung Latest Departure: FS9014 (MHTG-MHRO)Arthur. Kung
Scenery:
METAR : MHTG 240500Z 18002KT 9999 BKN024 SCT250 20/19 Q1018 A3006 NOSIG

通康丁國際機場 TGU

You are accessing this site from IP address 34.201.9.19. Virtual Airline. CMS by phpVMS.Website designed by Zumeweb and edited by Theo Bearman.
There is 0 User(s) Online: | and 18 Guest(s) Online.
All information on this site is for fight simulation purposes only. This site is for flight logging for pilots of Virtual Airline&模擬飛行論壇 FlySim only.